Time;durP1;ratioP1;P1;durP2;ratioP2;P2;SDS_P1;SDS_P2;PMS_P1;PMS_P2;Temp;Humidity;BMP_temperature;BMP_pressure;BME280_temperature;BME280_humidity;BME280_pressure;Samples;Min_cycle;Max_cycle;Signal;HPM_P1;HPM_P2
2020/12/19 00:01:35;;;;;;;13.27;7.93;;;6.10;91.20;;;;;;5029261;28;20472;-74
2020/12/19 00:04:01;;;;;;;12.20;8.60;;;6.10;91.20;;;;;;5029038;28;20049;-74
2020/12/19 00:06:27;;;;;;;13.32;7.72;;;6.00;91.20;;;;;;5030232;28;20034;-74
2020/12/19 00:08:53;;;;;;;12.52;8.68;;;6.10;91.20;;;;;;5023669;28;20038;-74
2020/12/19 00:11:19;;;;;;;16.15;8.27;;;6.00;91.20;;;;;;5026333;28;20116;-74
2020/12/19 00:13:45;;;;;;;16.77;8.30;;;6.10;91.10;;;;;;5029688;28;20112;-74
2020/12/19 00:16:17;;;;;;;14.85;8.75;;;6.00;91.10;;;;;;5013087;28;20029;-74
2020/12/19 00:18:44;;;;;;;15.10;8.20;;;6.00;91.10;;;;;;5071251;22;20060;-75
2020/12/19 00:21:10;;;;;;;13.35;8.68;;;6.00;91.20;;;;;;5033070;28;20102;-74
2020/12/19 00:23:37;;;;;;;15.38;9.35;;;6.00;91.20;;;;;;5051187;28;20491;-74
2020/12/19 00:26:04;;;;;;;17.88;11.20;;;6.00;91.50;;;;;;5021045;28;20040;-74
2020/12/19 00:28:30;;;;;;;12.75;9.18;;;6.00;91.10;;;;;;5029971;28;20025;-75
2020/12/19 00:30:55;;;;;;;14.05;8.50;;;6.00;91.10;;;;;;5045505;28;20337;-75
2020/12/19 00:33:21;;;;;;;12.27;7.85;;;6.00;91.10;;;;;;5016156;28;20028;-75
2020/12/19 00:35:47;;;;;;;15.10;8.98;;;6.00;91.00;;;;;;5027527;28;20030;-75
2020/12/19 00:38:13;;;;;;;12.27;7.97;;;6.00;91.10;;;;;;5028352;28;20021;-74
2020/12/19 00:40:38;;;;;;;15.80;8.75;;;6.00;91.10;;;;;;5050886;28;20031;-75
2020/12/19 00:43:04;;;;;;;15.35;9.18;;;5.90;91.00;;;;;;5031035;28;20021;-75
2020/12/19 00:45:30;;;;;;;14.18;8.82;;;5.90;91.10;;;;;;5051088;28;20028;-75
2020/12/19 00:47:55;;;;;;;15.48;8.77;;;5.90;91.10;;;;;;5032252;28;20032;-75
2020/12/19 00:50:21;;;;;;;19.02;10.52;;;5.90;91.10;;;;;;5009681;28;20025;-75
2020/12/19 00:52:47;;;;;;;15.15;9.55;;;5.90;91.20;;;;;;5045222;28;20018;-75
2020/12/19 00:55:12;;;;;;;15.88;8.95;;;5.90;91.20;;;;;;5035361;28;20075;-74
2020/12/19 00:57:38;;;;;;;13.27;8.05;;;5.90;91.20;;;;;;5054777;28;20449;-76
2020/12/19 01:00:08;;;;;;;15.50;8.80;;;5.80;91.10;;;;;;5036403;28;20013;-75
2020/12/19 01:02:36;;;;;;;17.67;9.00;;;5.80;91.20;;;;;;5012177;28;20484;-74
2020/12/19 01:05:05;;;;;;;14.18;8.23;;;5.90;91.10;;;;;;5006595;28;20060;-75
2020/12/19 01:07:31;;;;;;;13.95;8.18;;;5.80;91.00;;;;;;5019221;28;20477;-75
2020/12/19 01:10:00;;;;;;;12.95;8.13;;;5.90;91.00;;;;;;5046611;28;20108;-75
2020/12/19 01:12:25;;;;;;;13.05;7.95;;;5.80;90.90;;;;;;5050856;28;20017;-75
2020/12/19 01:14:51;;;;;;;15.02;8.50;;;5.80;91.10;;;;;;5033611;28;20021;-75
2020/12/19 01:17:17;;;;;;;13.05;7.70;;;5.80;91.00;;;;;;5013457;28;20400;-74
2020/12/19 01:19:42;;;;;;;12.02;7.75;;;5.80;91.10;;;;;;5026487;28;20388;-75
2020/12/19 01:22:08;;;;;;;15.05;8.75;;;5.80;91.00;;;;;;5031952;28;20045;-75
2020/12/19 01:24:34;;;;;;;13.18;8.48;;;5.80;91.10;;;;;;5019688;28;20499;-75
2020/12/19 01:27:00;;;;;;;15.25;8.40;;;5.80;91.00;;;;;;5014392;28;20047;-74
2020/12/19 01:29:25;;;;;;;15.48;8.93;;;5.70;91.10;;;;;;5026036;28;20115;-75
2020/12/19 01:31:51;;;;;;;15.82;8.90;;;5.70;91.10;;;;;;5007232;28;20461;-75
2020/12/19 01:34:17;;;;;;;13.43;8.43;;;5.70;91.20;;;;;;5033389;28;20040;-74
2020/12/19 01:36:43;;;;;;;14.45;8.77;;;5.70;91.20;;;;;;5016184;28;20530;-75
2020/12/19 01:39:09;;;;;;;16.20;9.65;;;5.60;91.20;;;;;;5027486;28;20017;-74
2020/12/19 01:41:34;;;;;;;15.63;8.93;;;5.70;91.20;;;;;;5018204;28;20048;-74
2020/12/19 01:44:02;;;;;;;17.42;10.02;;;5.70;91.10;;;;;;5036006;28;20108;-75
2020/12/19 01:47:00;;;;;;;13.27;8.50;;;5.70;91.00;;;;;;5017669;28;20028;-75
2020/12/19 01:49:30;;;;;;;13.48;8.20;;;5.70;91.20;;;;;;5015260;28;20627;-74
2020/12/19 01:52:02;;;;;;;13.50;8.60;;;5.60;91.10;;;;;;5025168;28;20120;-75
2020/12/19 01:54:29;;;;;;;15.10;8.98;;;5.60;90.90;;;;;;5033436;28;20029;-75
2020/12/19 01:56:57;;;;;;;14.63;8.65;;;5.60;91.00;;;;;;5013323;28;20104;-74
2020/12/19 01:59:26;;;;;;;13.10;8.93;;;5.60;91.10;;;;;;5049675;28;20303;-74
2020/12/19 02:01:54;;;;;;;13.57;9.23;;;5.60;91.20;;;;;;5024274;28;20029;-74
2020/12/19 02:04:22;;;;;;;16.83;9.63;;;5.60;91.20;;;;;;5029868;28;20024;-74
2020/12/19 02:06:54;;;;;;;17.23;10.30;;;5.60;91.20;;;;;;5015365;28;20025;-74
2020/12/19 02:09:23;;;;;;;18.33;10.57;;;5.50;91.20;;;;;;5026721;28;20514;-75
2020/12/19 02:11:49;;;;;;;15.88;9.82;;;5.50;91.30;;;;;;5051399;28;20484;-74
2020/12/19 02:14:15;;;;;;;14.82;9.95;;;5.50;91.30;;;;;;5029565;28;20049;-74
2020/12/19 02:17:04;;;;;;;17.42;9.48;;;5.50;91.30;;;;;;5033752;28;20177;-75
2020/12/19 02:19:31;;;;;;;16.13;9.80;;;5.50;91.30;;;;;;5007150;28;20021;-74
2020/12/19 02:21:58;;;;;;;19.83;10.75;;;5.40;91.40;;;;;;5031682;28;20104;-75
2020/12/19 02:24:24;;;;;;;17.63;9.85;;;5.40;91.40;;;;;;5007652;28;20484;-73
2020/12/19 02:26:52;;;;;;;17.75;9.82;;;5.40;91.40;;;;;;5014276;28;20040;-75
2020/12/19 02:29:19;;;;;;;19.13;11.15;;;5.40;91.50;;;;;;5008142;28;20037;-74
2020/12/19 02:31:46;;;;;;;19.08;11.10;;;5.30;91.60;;;;;;5007678;28;20444;-74
2020/12/19 02:34:11;;;;;;;18.48;10.88;;;5.30;91.70;;;;;;5024245;28;20029;-75
2020/12/19 02:36:38;;;;;;;16.50;10.57;;;5.40;91.70;;;;;;5023376;28;20500;-74
2020/12/19 02:39:05;;;;;;;16.83;10.32;;;5.30;91.70;;;;;;5006470;28;20107;-75
2020/12/19 02:41:37;;;;;;;20.95;11.90;;;5.30;91.70;;;;;;5041642;28;20484;-74
2020/12/19 02:44:03;;;;;;;19.52;11.02;;;5.30;91.70;;;;;;5029751;28;20033;-74
2020/12/19 02:46:30;;;;;;;22.45;11.75;;;5.30;91.70;;;;;;5018081;28;20029;-74
2020/12/19 02:48:56;;;;;;;19.95;10.98;;;5.30;91.70;;;;;;5009756;28;20120;-74
2020/12/19 02:51:22;;;;;;;20.80;12.32;;;5.30;91.80;;;;;;5009590;28;20449;-75
2020/12/19 02:53:47;;;;;;;21.67;12.75;;;5.30;91.90;;;;;;5029696;28;20037;-74
2020/12/19 02:56:13;;;;;;;19.08;12.35;;;5.30;91.80;;;;;;5052095;28;20025;-75
2020/12/19 02:58:39;;;;;;;20.10;11.38;;;5.30;91.70;;;;;;5015119;28;20025;-74
2020/12/19 03:01:04;;;;;;;21.83;11.25;;;5.30;91.90;;;;;;5016107;28;20032;-74
2020/12/19 03:03:30;;;;;;;18.00;11.50;;;5.30;91.90;;;;;;5028628;28;20044;-74
2020/12/19 03:05:56;;;;;;;22.20;12.52;;;5.30;92.00;;;;;;5023252;28;20147;-74
2020/12/19 03:08:22;;;;;;;21.73;12.32;;;5.30;91.80;;;;;;5026288;28;20473;-74
2020/12/19 03:10:47;;;;;;;20.27;11.55;;;5.30;91.80;;;;;;5027712;28;20047;-74
2020/12/19 03:13:13;;;;;;;22.05;11.70;;;5.30;91.80;;;;;;5029289;28;20033;-74
2020/12/19 03:15:39;;;;;;;18.95;12.02;;;5.30;91.80;;;;;;5027930;28;20056;-74
2020/12/19 03:18:04;;;;;;;20.83;12.75;;;5.30;91.80;;;;;;5042246;28;20034;-75
2020/12/19 03:20:30;;;;;;;22.10;13.13;;;5.30;91.80;;;;;;5024404;28;20509;-74
2020/12/19 03:22:55;;;;;;;21.80;12.57;;;5.30;92.00;;;;;;5030047;28;20033;-75
2020/12/19 03:25:21;;;;;;;22.25;12.80;;;5.20;92.00;;;;;;5011174;28;20068;-74
2020/12/19 03:27:47;;;;;;;21.38;11.63;;;5.20;92.00;;;;;;5030205;28;20519;-74
2020/12/19 03:30:12;;;;;;;22.05;12.98;;;5.30;92.00;;;;;;5007337;28;20079;-75
2020/12/19 03:32:38;;;;;;;20.58;12.43;;;5.20;92.00;;;;;;5007951;28;20017;-74
2020/12/19 03:35:04;;;;;;;22.38;13.82;;;5.20;92.00;;;;;;5014178;28;20047;-75
2020/12/19 03:37:33;;;;;;;21.48;12.45;;;5.30;92.00;;;;;;5024006;28;20060;-75
2020/12/19 03:39:59;;;;;;;18.83;11.40;;;5.20;91.90;;;;;;5036289;28;20048;-74
2020/12/19 03:42:26;;;;;;;23.90;13.40;;;5.30;92.00;;;;;;5031507;28;20554;-74
2020/12/19 03:44:52;;;;;;;21.73;12.80;;;5.20;91.90;;;;;;5029552;28;20024;-74
2020/12/19 03:47:18;;;;;;;19.70;12.70;;;5.20;91.90;;;;;;5032204;28;20115;-74
2020/12/19 03:49:43;;;;;;;21.88;13.10;;;5.20;92.00;;;;;;5022360;28;20116;-74
2020/12/19 03:52:09;;;;;;;25.02;13.65;;;5.30;92.00;;;;;;5030150;28;20029;-73
2020/12/19 03:54:34;;;;;;;17.98;11.95;;;5.30;92.00;;;;;;5031581;28;20032;-75
2020/12/19 03:57:00;;;;;;;21.58;12.77;;;5.30;91.90;;;;;;5027790;28;20451;-75
2020/12/19 03:59:26;;;;;;;25.60;13.98;;;5.20;91.90;;;;;;5040893;28;20025;-74
2020/12/19 04:01:51;;;;;;;21.67;12.60;;;5.20;91.90;;;;;;5021903;28;20357;-74
2020/12/19 04:04:17;;;;;;;24.83;13.52;;;5.20;92.00;;;;;;5029720;28;20025;-75
2020/12/19 04:06:43;;;;;;;24.63;13.50;;;5.20;92.10;;;;;;5017075;28;20032;-74
2020/12/19 04:09:08;;;;;;;23.52;13.63;;;5.20;92.10;;;;;;5007794;28;20034;-74
2020/12/19 04:11:34;;;;;;;24.50;13.93;;;5.20;92.10;;;;;;5008191;28;20068;-76
2020/12/19 04:14:01;;;;;;;22.80;13.20;;;5.20;92.10;;;;;;5006993;28;20032;-75
2020/12/19 04:16:26;;;;;;;21.02;13.57;;;5.20;92.20;;;;;;5028924;28;20075;-75
2020/12/19 04:18:52;;;;;;;25.33;14.65;;;5.10;92.10;;;;;;5008867;28;20030;-75
2020/12/19 04:21:18;;;;;;;23.60;15.32;;;5.10;92.20;;;;;;5011245;28;20108;-74
2020/12/19 04:23:43;;;;;;;24.55;13.95;;;5.20;92.20;;;;;;5021158;28;20020;-75
2020/12/19 04:26:09;;;;;;;28.33;15.38;;;5.20;92.10;;;;;;5051266;28;20029;-74
2020/12/19 04:28:35;;;;;;;24.10;13.93;;;5.10;92.30;;;;;;5023725;28;20021;-75
2020/12/19 04:31:00;;;;;;;25.65;14.13;;;5.10;92.40;;;;;;5022480;28;20057;-75
2020/12/19 04:33:26;;;;;;;28.08;14.55;;;5.10;92.40;;;;;;5013561;28;20079;-74
2020/12/19 04:35:52;;;;;;;22.90;13.40;;;5.10;92.40;;;;;;5028042;28;20082;-74
2020/12/19 04:38:18;;;;;;;24.58;14.32;;;5.10;92.40;;;;;;5007678;28;20400;-74
2020/12/19 04:40:45;;;;;;;27.00;14.82;;;5.10;92.40;;;;;;5009256;28;20025;-75
2020/12/19 04:43:19;;;;;;;28.15;14.88;;;5.10;92.50;;;;;;5013316;28;20043;-75
2020/12/19 04:45:46;;;;;;;28.23;14.32;;;5.10;92.70;;;;;;5030285;28;20072;-74
2020/12/19 04:48:21;;;;;;;25.38;14.98;;;5.10;92.60;;;;;;5027278;28;20025;-74
2020/12/19 04:50:47;;;;;;;26.15;15.45;;;5.10;92.50;;;;;;5024191;28;20113;-74
2020/12/19 04:53:15;;;;;;;27.52;14.90;;;5.10;92.40;;;;;;5013695;28;20116;-74
2020/12/19 04:55:41;;;;;;;28.05;14.40;;;5.10;92.40;;;;;;5031463;28;20040;-75
2020/12/19 04:58:11;;;;;;;25.48;14.10;;;5.10;92.50;;;;;;5012124;28;20607;-72
2020/12/19 05:00:38;;;;;;;28.55;14.95;;;5.10;92.50;;;;;;5004729;28;20032;-75
2020/12/19 05:03:03;;;;;;;25.05;14.73;;;5.10;92.40;;;;;;5031378;28;20036;-74
2020/12/19 05:05:29;;;;;;;25.75;14.52;;;5.10;92.40;;;;;;5014063;28;20037;-75
2020/12/19 05:07:55;;;;;;;25.25;14.65;;;5.20;92.40;;;;;;5028228;28;20497;-75
2020/12/19 05:10:21;;;;;;;25.23;14.38;;;5.10;92.40;;;;;;5016274;28;20091;-74
2020/12/19 05:12:55;;;;;;;28.63;15.07;;;5.10;92.50;;;;;;5011849;28;20026;-74
2020/12/19 05:15:22;;;;;;;27.55;15.07;;;5.10;92.50;;;;;;5012925;28;20128;-74
2020/12/19 05:17:58;;;;;;;26.45;14.52;;;5.10;92.60;;;;;;5029213;28;20120;-75
2020/12/19 05:20:27;;;;;;;26.05;14.98;;;5.10;92.60;;;;;;5010443;28;20025;-75
2020/12/19 05:22:53;;;;;;;27.35;15.70;;;5.10;92.60;;;;;;5018123;28;20519;-75
2020/12/19 05:25:22;;;;;;;28.02;16.13;;;5.10;92.60;;;;;;5020453;28;20025;-74
2020/12/19 05:27:48;;;;;;;26.65;14.98;;;5.10;92.50;;;;;;5017219;28;20025;-74
2020/12/19 05:30:15;;;;;;;27.88;15.50;;;5.00;92.60;;;;;;5043948;28;20025;-74
2020/12/19 05:32:52;;;;;;;25.42;14.70;;;5.00;92.70;;;;;;5032814;28;20021;-74
2020/12/19 05:35:20;;;;;;;26.10;14.80;;;5.00;92.60;;;;;;5050310;28;20104;-75
2020/12/19 05:38:00;;;;;;;27.02;14.88;;;5.00;92.70;;;;;;5028488;28;20025;-75
2020/12/19 05:40:27;;;;;;;28.20;14.65;;;5.10;92.70;;;;;;5024148;28;20043;-75
2020/12/19 05:42:53;;;;;;;26.50;14.68;;;5.00;92.50;;;;;;5008326;28;20040;-74
2020/12/19 05:45:21;;;;;;;27.77;15.15;;;5.00;92.70;;;;;;5035103;28;20021;-75
2020/12/19 05:47:47;;;;;;;26.42;14.73;;;5.00;92.70;;;;;;5033147;28;20095;-75
2020/12/19 05:50:13;;;;;;;25.30;14.23;;;5.00;92.70;;;;;;5031274;28;20048;-73
2020/12/19 05:52:40;;;;;;;26.05;14.95;;;5.00;92.70;;;;;;5031104;28;20760;-75
2020/12/19 05:55:08;;;;;;;28.10;15.52;;;5.00;92.60;;;;;;5051138;28;20100;-75
2020/12/19 05:57:35;;;;;;;27.48;15.43;;;5.00;92.70;;;;;;5013995;28;20086;-75
2020/12/19 06:00:04;;;;;;;27.10;14.73;;;5.00;92.80;;;;;;5031946;28;20025;-75
2020/12/19 06:02:30;;;;;;;27.67;15.27;;;5.00;92.60;;;;;;5032888;28;20393;-75
2020/12/19 06:05:00;;;;;;;29.83;14.63;;;5.00;92.60;;;;;;5032108;28;20021;-75
2020/12/19 06:07:29;;;;;;;25.77;14.85;;;5.00;92.70;;;;;;5015817;28;20029;-75
2020/12/19 06:09:55;;;;;;;28.45;14.82;;;5.00;92.70;;;;;;5023541;28;20026;-75
2020/12/19 06:12:37;;;;;;;27.60;15.10;;;5.00;92.70;;;;;;5008287;28;20344;-74
2020/12/19 06:15:04;;;;;;;26.85;13.98;;;5.00;92.70;;;;;;5017487;28;20116;-75
2020/12/19 06:17:47;;;;;;;31.70;15.38;;;4.90;92.70;;;;;;5027728;28;20021;-75
2020/12/19 06:20:15;;;;;;;28.35;15.02;;;5.00;92.70;;;;;;5025597;28;20112;-75
2020/12/19 06:22:42;;;;;;;25.33;14.45;;;5.00;92.70;;;;;;5007793;28;20033;-75
2020/12/19 06:25:07;;;;;;;25.30;14.82;;;5.00;92.70;;;;;;5011556;28;20035;-75
2020/12/19 06:27:33;;;;;;;26.33;14.80;;;4.90;92.80;;;;;;5028907;28;20037;-75
2020/12/19 06:29:59;;;;;;;27.65;14.65;;;4.90;92.80;;;;;;5026780;28;20532;-74
2020/12/19 06:32:27;;;;;;;26.10;14.18;;;5.00;94.20;;;;;;5023660;28;20098;-74
2020/12/19 06:35:09;;;;;;;25.58;13.80;;;5.10;92.80;;;;;;5033858;28;20055;-75
2020/12/19 06:37:41;;;;;;;26.58;13.85;;;5.30;93.10;;;;;;5031738;28;20024;-75
2020/12/19 06:40:18;;;;;;;22.52;13.00;;;5.40;92.30;;;;;;5042341;28;21156;-75
2020/12/19 06:42:45;;;;;;;26.65;14.35;;;5.30;92.10;;;;;;5010746;28;20120;-75
2020/12/19 06:45:20;;;;;;;23.10;13.85;;;5.20;92.20;;;;;;5031904;28;20032;-75
2020/12/19 06:47:46;;;;;;;24.58;13.15;;;5.10;92.30;;;;;;5050229;28;20031;-75
2020/12/19 06:50:12;;;;;;;25.48;13.57;;;5.10;92.50;;;;;;5008410;28;20025;-75
2020/12/19 06:52:38;;;;;;;25.00;14.43;;;5.10;92.50;;;;;;5025995;28;20126;-73
2020/12/19 06:55:24;;;;;;;24.92;14.40;;;5.10;92.40;;;;;;5032200;28;20580;-75
2020/12/19 06:57:54;;;;;;;24.13;13.43;;;5.10;92.30;;;;;;5026288;28;20116;-75
2020/12/19 07:00:23;;;;;;;25.17;13.13;;;5.10;92.40;;;;;;5047015;28;20488;-75
2020/12/19 07:02:54;;;;;;;23.73;13.45;;;5.10;92.50;;;;;;5032314;28;20364;-76
2020/12/19 07:05:24;;;;;;;23.48;13.57;;;5.00;92.40;;;;;;5043340;28;20014;-75
2020/12/19 07:07:51;;;;;;;26.25;13.20;;;5.00;92.50;;;;;;5025823;28;20025;-74
2020/12/19 07:10:34;;;;;;;26.90;14.48;;;5.00;92.40;;;;;;5042983;28;20036;-75
2020/12/19 07:13:00;;;;;;;23.48;13.90;;;5.00;92.50;;;;;;5033693;28;20554;-75
2020/12/19 07:15:46;;;;;;;25.05;13.80;;;5.00;92.50;;;;;;5031224;28;20029;-76
2020/12/19 07:18:25;;;;;;;25.88;14.63;;;5.00;92.60;;;;;;5008654;28;20029;-75
2020/12/19 07:21:01;;;;;;;24.67;14.13;;;4.90;92.70;;;;;;5006395;28;20384;-75
2020/12/19 07:23:28;;;;;;;24.92;13.73;;;4.90;92.70;;;;;;5047943;28;20082;-75
2020/12/19 07:25:53;;;;;;;26.23;14.85;;;4.90;92.80;;;;;;5027394;28;20104;-76
2020/12/19 07:28:19;;;;;;;23.90;13.85;;;4.90;92.70;;;;;;5011259;28;20168;-76
2020/12/19 07:30:45;;;;;;;23.08;13.63;;;4.90;92.70;;;;;;5008178;28;20033;-75
2020/12/19 07:33:11;;;;;;;26.40;13.73;;;5.00;92.70;;;;;;5017554;28;20024;-76
2020/12/19 07:35:37;;;;;;;28.77;15.27;;;5.00;92.80;;;;;;5048664;28;20028;-75
2020/12/19 07:38:06;;;;;;;31.55;14.45;;;4.90;92.80;;;;;;5037140;28;20029;-74
2020/12/19 07:40:32;;;;;;;25.20;13.65;;;4.90;92.70;;;;;;5025998;28;21834;-76
2020/12/19 07:43:05;;;;;;;23.42;13.48;;;4.90;92.70;;;;;;5041083;28;20021;-76
2020/12/19 07:45:32;;;;;;;23.85;13.10;;;5.00;92.80;;;;;;5028908;28;20031;-75
2020/12/19 07:48:01;;;;;;;25.35;13.85;;;4.90;92.70;;;;;;5031161;28;20028;-75
2020/12/19 07:50:28;;;;;;;27.48;14.18;;;4.90;92.70;;;;;;5052331;28;20029;-76
2020/12/19 07:53:01;;;;;;;24.27;13.48;;;4.90;92.70;;;;;;5048430;28;20071;-75
2020/12/19 07:55:53;;;;;;;26.48;14.18;;;5.00;92.60;;;;;;5021710;28;20021;-75
2020/12/19 07:58:19;;;;;;;26.00;13.50;;;5.00;92.70;;;;;;5024760;28;20076;-76
2020/12/19 08:00:45;;;;;;;23.63;12.88;;;5.00;92.70;;;;;;5030520;28;20053;-74
2020/12/19 08:03:14;;;;;;;25.38;14.35;;;5.00;92.70;;;;;;5014952;28;20116;-76
2020/12/19 08:05:40;;;;;;;24.75;14.50;;;5.00;92.70;;;;;;5011955;28;20201;-75
2020/12/19 08:08:05;;;;;;;24.60;13.18;;;5.00;92.80;;;;;;5044041;28;20483;-75
2020/12/19 08:10:31;;;;;;;27.00;13.80;;;5.00;92.80;;;;;;5027450;28;20021;-75
2020/12/19 08:12:57;;;;;;;23.88;13.57;;;5.00;92.70;;;;;;5043040;28;20060;-74
2020/12/19 08:15:27;;;;;;;26.77;14.48;;;5.00;92.80;;;;;;5012098;28;20075;-75
2020/12/19 08:18:02;;;;;;;26.13;14.15;;;5.00;92.80;;;;;;5007979;28;20035;-78
2020/12/19 08:20:31;;;;;;;27.02;14.90;;;5.00;92.70;;;;;;5017380;28;20386;-79
2020/12/19 08:23:02;;;;;;;25.30;14.63;;;5.00;92.70;;;;;;5034243;28;20040;-78
2020/12/19 08:25:28;;;;;;;24.10;13.55;;;5.00;92.80;;;;;;5029110;28;20025;-78
2020/12/19 08:27:53;;;;;;;27.92;13.55;;;5.00;92.60;;;;;;5026231;28;20060;-76
2020/12/19 08:30:23;;;;;;;26.88;14.32;;;5.00;92.70;;;;;;5008482;28;20442;-78
2020/12/19 08:32:58;;;;;;;23.67;13.27;;;5.00;92.70;;;;;;5047612;28;20029;-78
2020/12/19 08:35:26;;;;;;;25.42;14.35;;;5.00;92.70;;;;;;5026561;28;20030;-77
2020/12/19 08:38:07;;;;;;;23.27;13.57;;;5.00;92.80;;;;;;5026987;28;20021;-76
2020/12/19 08:40:37;;;;;;;;;;;5.00;92.70;;;;;;5011901;28;20094;-77
2020/12/19 08:43:03;;;;;;;23.42;13.02;;;5.00;92.70;;;;;;5043509;28;19913;-77
2020/12/19 08:45:36;;;;;;;24.83;13.35;;;5.00;92.80;;;;;;5025993;28;20051;-76
2020/12/19 08:48:39;;;;;;;22.33;12.50;;;5.00;92.60;;;;;;5027413;28;20029;-76
2020/12/19 08:51:09;;;;;;;24.08;13.27;;;5.20;92.60;;;;;;5029448;28;20510;-77
2020/12/19 08:53:36;;;;;;;23.55;13.32;;;5.10;92.40;;;;;;5028160;28;20026;-77
2020/12/19 08:56:16;;;;;;;25.10;14.77;;;5.10;92.50;;;;;;5024039;28;20037;-79
2020/12/19 08:58:42;;;;;;;24.85;14.18;;;5.10;92.50;;;;;;5029366;28;20396;-78
2020/12/19 09:01:14;;;;;;;25.92;14.48;;;5.10;92.50;;;;;;5033315;28;20026;-77
2020/12/19 09:03:43;;;;;;;25.30;14.32;;;5.10;92.60;;;;;;5047471;28;20372;-78
2020/12/19 09:06:11;;;;;;;27.10;14.70;;;5.10;92.70;;;;;;5023590;28;20116;-75
2020/12/19 09:08:45;;;;;;;24.40;14.15;;;5.10;92.70;;;;;;5043226;28;20029;-77
2020/12/19 09:11:34;;;;;;;24.65;13.93;;;5.10;92.70;;;;;;5027264;28;20036;-76
2020/12/19 09:14:08;;;;;;;24.52;14.00;;;5.10;92.60;;;;;;5047995;28;20021;-76
2020/12/19 09:16:35;;;;;;;25.10;13.82;;;5.20;92.60;;;;;;5013657;28;20420;-76
2020/12/19 09:19:11;;;;;;;24.67;13.73;;;5.20;92.60;;;;;;5056276;28;20033;-78
2020/12/19 09:21:37;;;;;;;24.83;14.55;;;5.20;92.60;;;;;;5048581;28;20028;-76
2020/12/19 09:24:02;;;;;;;24.27;13.80;;;5.20;92.50;;;;;;5013924;28;20155;-75
2020/12/19 09:26:28;;;;;;;24.02;14.38;;;5.20;92.50;;;;;;5031305;28;20394;-77
2020/12/19 09:28:54;;;;;;;27.20;14.38;;;5.20;92.40;;;;;;5027715;28;20029;-77
2020/12/19 09:31:19;;;;;;;25.98;14.18;;;5.30;92.40;;;;;;5033779;28;20028;-76
2020/12/19 09:33:45;;;;;;;26.88;14.63;;;5.30;92.40;;;;;;5030335;28;20112;-76
2020/12/19 09:36:11;;;;;;;24.15;14.30;;;5.30;92.40;;;;;;5011448;28;20389;-75
2020/12/19 09:38:39;;;;;;;23.15;11.88;;;5.30;92.40;;;;;;5026678;28;20017;-76
2020/12/19 09:41:15;;;;;;;23.75;13.00;;;5.50;94.00;;;;;;5027530;28;20017;-75
2020/12/19 09:43:43;;;;;;;23.50;13.88;;;5.70;92.80;;;;;;5049260;28;20072;-75
2020/12/19 09:46:13;;;;;;;24.05;13.82;;;5.80;92.00;;;;;;5032328;28;20029;-74
2020/12/19 09:48:39;;;;;;;22.00;13.30;;;5.80;91.80;;;;;;5029438;28;20060;-75
2020/12/19 09:51:12;;;;;;;23.65;12.98;;;5.70;91.70;;;;;;5057785;28;20036;-76
2020/12/19 09:53:39;;;;;;;23.40;14.38;;;5.70;91.90;;;;;;5040545;28;20048;-72
2020/12/19 09:56:05;;;;;;;25.02;13.43;;;5.70;91.90;;;;;;5031343;28;20559;-76
2020/12/19 09:58:32;;;;;;;22.60;12.05;;;5.60;91.90;;;;;;5039265;28;20103;-76
2020/12/19 10:00:57;;;;;;;23.60;13.13;;;5.60;92.00;;;;;;5023383;28;20021;-75
2020/12/19 10:03:23;;;;;;;22.60;13.18;;;5.60;92.10;;;;;;5024308;28;20068;-76
2020/12/19 10:05:49;;;;;;;24.40;13.27;;;5.60;92.10;;;;;;5025640;28;20127;-74
2020/12/19 10:08:15;;;;;;;24.40;14.57;;;5.60;92.30;;;;;;5023383;28;20033;-76
2020/12/19 10:10:44;;;;;;;25.60;14.68;;;5.60;92.10;;;;;;5008222;28;20041;-76
2020/12/19 10:13:11;;;;;;;22.50;12.30;;;5.70;92.00;;;;;;5027234;28;20037;-75
2020/12/19 10:15:37;;;;;;;22.52;12.35;;;5.80;93.50;;;;;;5040888;28;20026;-74
2020/12/19 10:18:03;;;;;;;22.05;11.00;;;6.20;94.10;;;;;;5024570;28;20034;-76
2020/12/19 10:20:29;;;;;;;20.63;12.98;;;6.90;92.40;;;;;;5022250;28;20038;-75
2020/12/19 10:22:54;;;;;;;22.45;12.27;;;6.90;90.10;;;;;;5005951;28;20411;-72
2020/12/19 10:25:20;;;;;;;21.92;12.63;;;6.80;90.00;;;;;;5005835;28;20036;-75
2020/12/19 10:27:46;;;;;;;23.67;14.20;;;6.50;90.30;;;;;;5044545;28;20056;-75
2020/12/19 10:30:12;;;;;;;22.98;13.73;;;6.40;90.50;;;;;;5009150;28;20032;-76
2020/12/19 10:32:47;;;;;;;21.08;12.30;;;6.30;90.90;;;;;;5011771;28;20040;-75
2020/12/19 10:35:13;;;;;;;20.75;11.82;;;6.20;91.10;;;;;;5010961;28;20087;-75
2020/12/19 10:37:39;;;;;;;21.27;13.55;;;6.30;91.70;;;;;;5033846;28;20405;-75
2020/12/19 10:40:05;;;;;;;25.60;13.05;;;6.20;91.20;;;;;;5033682;28;20111;-74
2020/12/19 10:42:31;;;;;;;20.25;13.27;;;6.20;91.30;;;;;;5030108;28;20338;-78
2020/12/19 10:44:57;;;;;;;22.80;13.55;;;6.20;91.30;;;;;;5031709;28;20502;-75
2020/12/19 10:47:22;;;;;;;25.13;13.45;;;6.10;91.40;;;;;;5018562;28;20036;-75
2020/12/19 10:49:49;;;;;;;25.40;13.52;;;6.10;91.50;;;;;;5019247;28;20028;-75
2020/12/19 10:52:14;;;;;;;22.95;13.82;;;6.10;91.50;;;;;;5035452;28;20025;-76
2020/12/19 10:54:40;;;;;;;24.20;14.43;;;6.10;91.60;;;;;;5013985;28;20059;-76
2020/12/19 10:57:06;;;;;;;26.70;13.90;;;6.10;91.70;;;;;;5035199;28;20057;-75
2020/12/19 10:59:32;;;;;;;24.27;14.13;;;6.10;91.70;;;;;;5030291;28;20041;-76
2020/12/19 11:01:58;;;;;;;24.48;13.23;;;6.10;91.80;;;;;;5048534;28;20106;-76
2020/12/19 11:04:24;;;;;;;23.45;14.45;;;6.10;91.80;;;;;;5035243;28;20067;-76
2020/12/19 11:06:50;;;;;;;22.88;13.05;;;6.10;91.80;;;;;;5016062;28;20539;-76
2020/12/19 11:09:16;;;;;;;23.70;14.13;;;6.10;91.90;;;;;;5013703;28;20028;-75
2020/12/19 11:11:49;;;;;;;26.40;14.98;;;6.10;91.90;;;;;;5050131;28;20033;-75
2020/12/19 11:14:14;;;;;;;22.50;13.70;;;6.10;92.00;;;;;;5017965;28;20036;-76
2020/12/19 11:16:40;;;;;;;26.05;13.90;;;6.20;92.00;;;;;;5015539;28;20033;-74
2020/12/19 11:19:09;;;;;;;24.60;13.68;;;6.20;92.10;;;;;;5029236;28;20036;-75
2020/12/19 11:21:44;;;;;;;25.80;14.38;;;6.20;92.00;;;;;;5027393;28;20052;-75
2020/12/19 11:24:11;;;;;;;24.10;14.05;;;6.20;92.00;;;;;;5030229;28;20021;-76
2020/12/19 11:26:41;;;;;;;25.23;13.43;;;6.30;92.10;;;;;;5030511;28;20298;-75
2020/12/19 11:29:09;;;;;;;23.90;13.77;;;6.30;92.10;;;;;;5012831;28;20377;-77
2020/12/19 11:31:35;;;;;;;25.02;14.38;;;6.30;92.00;;;;;;5014049;28;20412;-76
2020/12/19 11:34:01;;;;;;;21.52;13.75;;;6.30;92.00;;;;;;5034634;28;20025;-76
2020/12/19 11:36:27;;;;;;;27.75;14.02;;;6.40;92.00;;;;;;5029785;28;20035;-74
2020/12/19 11:38:52;;;;;;;23.70;13.88;;;6.40;92.10;;;;;;5015474;28;20090;-77
2020/12/19 11:41:25;;;;;;;25.38;14.05;;;6.40;92.20;;;;;;5029104;28;20021;-77
2020/12/19 11:43:53;;;;;;;23.63;13.93;;;6.50;92.20;;;;;;5012872;28;20017;-77
2020/12/19 11:46:19;;;;;;;24.80;13.90;;;6.50;92.10;;;;;;5015310;28;20029;-76
2020/12/19 11:48:45;;;;;;;23.15;13.07;;;6.60;92.10;;;;;;5032696;28;20484;-75
2020/12/19 11:51:11;;;;;;;22.33;13.63;;;6.60;92.00;;;;;;5016726;28;20373;-77
2020/12/19 11:53:37;;;;;;;23.23;13.23;;;6.70;92.10;;;;;;5028123;28;20036;-76
2020/12/19 11:56:03;;;;;;;23.27;12.77;;;6.70;92.00;;;;;;5011118;28;20026;-77
2020/12/19 11:58:29;;;;;;;24.20;13.55;;;6.80;91.80;;;;;;5017452;28;20410;-77
2020/12/19 12:00:55;;;;;;;23.60;13.77;;;6.90;91.80;;;;;;5016319;28;20021;-77
2020/12/19 12:03:21;;;;;;;24.13;13.13;;;6.90;91.70;;;;;;5016433;28;20020;-77
2020/12/19 12:05:47;;;;;;;23.05;13.63;;;6.90;91.80;;;;;;5011830;28;20496;-77
2020/12/19 12:08:12;;;;;;;20.80;12.23;;;7.00;91.80;;;;;;5032205;28;20107;-77
2020/12/19 12:10:38;;;;;;;22.85;13.15;;;7.00;91.70;;;;;;5030571;28;20029;-77
2020/12/19 12:13:04;;;;;;;22.27;13.20;;;7.00;91.70;;;;;;5012440;28;20892;-75
2020/12/19 12:15:30;;;;;;;21.95;12.85;;;7.10;91.50;;;;;;5019481;28;20032;-75
2020/12/19 12:17:56;;;;;;;22.95;13.52;;;7.10;91.60;;;;;;5086815;22;20076;-76
2020/12/19 12:20:21;;;;;;;18.88;11.70;;;7.20;91.50;;;;;;5040240;28;20035;-75
2020/12/19 12:22:47;;;;;;;24.20;13.45;;;7.20;91.50;;;;;;5041551;28;20063;-76
2020/12/19 12:25:13;;;;;;;20.50;12.90;;;7.10;91.60;;;;;;5038599;28;20037;-75
2020/12/19 12:27:39;;;;;;;20.60;12.40;;;7.20;91.50;;;;;;5062145;28;20090;-75
2020/12/19 12:30:06;;;;;;;20.42;11.43;;;7.20;91.60;;;;;;5069114;28;20029;-75
2020/12/19 12:32:31;;;;;;;27.38;15.13;;;7.20;91.60;;;;;;5052972;28;20068;-75
2020/12/19 12:34:57;;;;;;;21.75;12.57;;;7.30;92.30;;;;;;5049053;28;20044;-75
2020/12/19 12:37:23;;;;;;;21.15;12.65;;;7.30;91.60;;;;;;5052626;28;20107;-75
2020/12/19 12:39:49;;;;;;;19.42;11.68;;;7.30;91.50;;;;;;5062795;28;20082;-76
2020/12/19 12:42:33;;;;;;;20.30;12.02;;;7.30;91.50;;;;;;5055032;28;20506;-74